Urbancrest, Ohio
Current Conditions -  °F | °C
As of 1:15 AM on Saturday 29 Nov 2014 (Local Time) from KTZR Reporting Station
Clear Clear  
Wind Chill: 23°   Ceiling: Unl
Heat Index: 30°   Visibility: 10mi
Dew Point: 21°   Wind: 7mph
Humidity: 69%   Direction: 150°SSE
Pressure: 30.1"   Gusts: NA
Location:  39.8683°N, 83.1183°W
Report Text: KTZR 290615Z AUTO 15006KT 10SM CLR M01/M06 A3010 RMK AO2 T10121063
Loading
Personal Weather Stations






























Interactive Weather Map New forecast layout! Learn more

10-Day Weather Forecast

Advertisements
Track Severe Weather on mobile